createdAt,value
2019-05-05T00:00:24.678Z,8.05
2019-05-05T00:00:59.778Z,7.33
2019-05-05T00:01:34.839Z,8.05
2019-05-05T00:02:26.239Z,8.10
2019-05-05T00:03:49.290Z,8.63
2019-05-05T00:04:40.544Z,8.23
2019-05-05T00:05:35.239Z,6.87
2019-05-05T00:06:08.969Z,7.33
2019-05-05T00:06:44.454Z,7.83
2019-05-05T00:07:19.088Z,7.67
2019-05-05T00:07:54.150Z,7.50
2019-05-05T00:08:27.606Z,6.60
2019-05-05T00:09:01.015Z,7.75
2019-05-05T00:09:34.811Z,8.63
2019-05-05T00:10:10.759Z,8.53
2019-05-05T00:11:05.116Z,7.22
2019-05-05T00:11:44.463Z,6.70
2019-05-05T00:12:22.738Z,6.67
2019-05-05T00:12:57.793Z,5.78
2019-05-05T00:13:35.648Z,6.25
2019-05-05T00:14:15.219Z,6.85
2019-05-05T00:14:50.420Z,6.70
2019-05-05T00:15:44.983Z,6.45
2019-05-05T00:16:20.364Z,6.83
2019-05-05T00:16:57.968Z,6.55
2019-05-05T00:17:34.162Z,6.10
2019-05-05T00:18:07.187Z,6.78
2019-05-05T00:18:40.603Z,6.45
2019-05-05T00:19:19.133Z,6.05
2019-05-05T00:19:49.121Z,6.33
2019-05-05T00:20:22.524Z,6.10
2019-05-05T00:20:55.944Z,7.30
2019-05-05T00:21:29.355Z,6.50
2019-05-05T00:22:04.570Z,6.50
2019-05-05T00:22:37.899Z,6.00
2019-05-05T00:23:11.315Z,6.22
2019-05-05T00:23:45.182Z,6.40
2019-05-05T00:24:18.936Z,6.47
2019-05-05T00:24:54.486Z,5.83
2019-05-05T00:25:27.445Z,6.45
2019-05-05T00:26:00.858Z,6.17
2019-05-05T00:26:34.913Z,6.42
2019-05-05T00:27:08.480Z,5.87
2019-05-05T00:27:41.901Z,5.97
2019-05-05T00:28:15.305Z,6.67
2019-05-05T00:28:48.720Z,7.17
2019-05-05T00:29:22.130Z,6.60
2019-05-05T00:29:55.544Z,5.95
2019-05-05T00:30:29.039Z,5.95
2019-05-05T00:31:04.555Z,5.78
2019-05-05T00:31:37.531Z,6.42
2019-05-05T00:32:10.938Z,5.55
2019-05-05T00:32:44.359Z,6.33
2019-05-05T00:33:17.760Z,5.92
2019-05-05T00:33:51.168Z,6.42
2019-05-05T00:34:24.621Z,5.70
2019-05-05T00:34:58.094Z,5.30
2019-05-05T00:35:31.508Z,6.03
2019-05-05T00:36:07.736Z,6.30
2019-05-05T00:36:40.031Z,5.55
2019-05-05T00:37:15.156Z,5.80
2019-05-05T00:37:48.499Z,6.10
2019-05-05T00:38:21.910Z,6.08
2019-05-05T00:38:55.491Z,5.72
2019-05-05T00:39:28.898Z,5.42
2019-05-05T00:40:02.312Z,5.70
2019-05-05T00:40:35.714Z,6.15
2019-05-05T00:41:09.127Z,5.03
2019-05-05T00:41:44.761Z,5.70
2019-05-05T00:42:17.643Z,5.80
2019-05-05T00:42:51.050Z,5.72
2019-05-05T00:43:25.286Z,5.08
2019-05-05T00:43:58.873Z,5.42
2019-05-05T00:44:32.278Z,5.55
2019-05-05T00:45:08.841Z,5.65
2019-05-05T00:45:45.002Z,5.62
2019-05-05T00:46:19.718Z,5.62
2019-05-05T00:46:57.713Z,5.10
2019-05-05T00:47:34.416Z,5.72
2019-05-05T00:48:09.626Z,5.08
2019-05-05T00:48:47.316Z,5.42
2019-05-05T00:49:20.800Z,5.62
2019-05-05T00:49:56.116Z,5.55
2019-05-05T00:50:29.327Z,5.85
2019-05-05T00:51:04.512Z,6.12
2019-05-05T00:51:37.811Z,5.72
2019-05-05T00:52:11.242Z,5.37
2019-05-05T00:52:44.677Z,5.47
2019-05-05T00:53:18.076Z,5.83
2019-05-05T00:53:51.492Z,4.60
2019-05-05T00:54:24.898Z,4.90
2019-05-05T00:54:58.307Z,5.15
2019-05-05T00:55:31.720Z,5.10
2019-05-05T00:56:05.318Z,5.55
2019-05-05T00:56:38.714Z,4.58
2019-05-05T00:57:12.122Z,4.92
2019-05-05T00:57:45.551Z,4.97
2019-05-05T00:58:18.977Z,4.85
2019-05-05T00:58:55.292Z,4.70
2019-05-05T00:59:30.310Z,4.40
2019-05-05T01:00:06.488Z,4.95
2019-05-05T01:00:41.540Z,4.90
2019-05-05T01:01:35.059Z,4.85
2019-05-05T01:02:25.301Z,4.75
2019-05-05T01:02:58.740Z,4.12
2019-05-05T01:03:32.169Z,5.08
2019-05-05T01:04:05.581Z,4.53
2019-05-05T01:04:40.633Z,5.12
2019-05-05T01:05:15.686Z,4.87
2019-05-05T01:05:56.444Z,5.15
2019-05-05T01:06:31.493Z,4.90
2019-05-05T01:07:05.076Z,4.78
2019-05-05T01:07:38.818Z,4.42
2019-05-05T01:08:14.410Z,4.70
2019-05-05T01:08:47.924Z,4.60
2019-05-05T01:09:22.976Z,4.60
2019-05-05T01:09:56.384Z,4.83
2019-05-05T01:10:29.958Z,4.58
2019-05-05T01:11:04.160Z,4.72
2019-05-05T01:11:37.782Z,4.85
2019-05-05T01:12:11.570Z,5.00
2019-05-05T01:12:45.075Z,4.42
2019-05-05T01:13:18.483Z,4.78
2019-05-05T01:13:51.920Z,4.40
2019-05-05T01:14:25.346Z,5.10
2019-05-05T01:14:58.761Z,5.30
2019-05-05T01:15:32.172Z,4.47
2019-05-05T01:16:05.576Z,4.70
2019-05-05T01:16:39.055Z,4.30
2019-05-05T01:17:14.562Z,4.50
2019-05-05T01:17:47.520Z,5.12
2019-05-05T01:18:20.998Z,4.80
2019-05-05T01:18:55.381Z,4.42
2019-05-05T01:19:29.038Z,4.40
2019-05-05T01:20:06.208Z,4.78
2019-05-05T01:20:37.867Z,4.87
2019-05-05T01:21:11.278Z,3.83
2019-05-05T01:21:45.382Z,4.25
2019-05-05T01:22:19.198Z,4.55
2019-05-05T01:22:52.599Z,4.15
2019-05-05T01:23:26.014Z,4.08
2019-05-05T01:23:59.424Z,3.47
2019-05-05T01:24:34.220Z,4.40
2019-05-05T01:25:07.865Z,4.78
2019-05-05T01:25:41.298Z,4.62
2019-05-05T01:26:14.713Z,4.08
2019-05-05T01:26:48.121Z,4.62
2019-05-05T01:27:21.602Z,3.90
2019-05-05T01:27:55.015Z,4.15
2019-05-05T01:28:28.430Z,4.50
2019-05-05T01:29:01.833Z,4.65
2019-05-05T01:29:35.249Z,4.62
2019-05-05T01:30:12.534Z,4.65
2019-05-05T01:30:47.604Z,4.55
2019-05-05T01:31:21.206Z,4.55
2019-05-05T01:31:55.478Z,4.60
2019-05-05T01:32:35.159Z,4.80
2019-05-05T01:33:10.023Z,5.05
2019-05-05T01:33:45.067Z,4.40
2019-05-05T01:34:24.361Z,4.05
2019-05-05T01:34:58.041Z,4.70
2019-05-05T01:35:31.457Z,4.50
2019-05-05T01:36:04.892Z,3.90
2019-05-05T01:36:38.310Z,4.17
2019-05-05T01:37:16.253Z,3.80
2019-05-05T01:37:54.835Z,4.50
2019-05-05T01:38:29.913Z,4.42
2019-05-05T01:39:14.977Z,4.33
2019-05-05T01:39:50.025Z,4.28
2019-05-05T01:40:25.078Z,4.60
2019-05-05T01:41:00.128Z,4.33
2019-05-05T01:41:38.140Z,4.67
2019-05-05T01:42:14.336Z,4.62
2019-05-05T01:42:48.095Z,4.97
2019-05-05T01:43:21.500Z,4.67
2019-05-05T01:43:54.910Z,4.20
2019-05-05T01:44:28.316Z,4.65
2019-05-05T01:45:01.793Z,4.42
2019-05-05T01:45:35.941Z,4.45
2019-05-05T01:46:09.356Z,4.42
2019-05-05T01:46:44.504Z,4.33
2019-05-05T01:47:17.836Z,4.03
2019-05-05T01:47:51.263Z,3.87
2019-05-05T01:48:24.926Z,4.67
2019-05-05T01:48:58.390Z,3.77
2019-05-05T01:49:31.799Z,4.20
2019-05-05T01:50:17.664Z,5.00
2019-05-05T01:50:41.895Z,4.65
2019-05-05T01:51:15.302Z,4.10
2019-05-05T01:51:48.788Z,4.40
2019-05-05T01:52:22.193Z,4.37
2019-05-05T01:52:55.693Z,5.03
2019-05-05T01:53:29.072Z,5.00
2019-05-05T01:54:02.482Z,4.95
2019-05-05T01:54:35.899Z,5.00
2019-05-05T01:55:09.302Z,5.00
2019-05-05T01:55:45.064Z,4.60
2019-05-05T01:56:18.336Z,4.78
2019-05-05T01:56:52.415Z,4.78
2019-05-05T01:57:26.077Z,4.72
2019-05-05T01:57:59.481Z,5.47
2019-05-05T01:58:34.766Z,4.65
2019-05-05T01:59:07.982Z,5.00
2019-05-05T01:59:41.401Z,4.80
2019-05-05T02:00:14.988Z,4.83
2019-05-05T02:00:48.394Z,4.45
2019-05-05T02:01:21.798Z,3.70
2019-05-05T02:01:55.273Z,4.08
2019-05-05T02:02:28.797Z,4.42
2019-05-05T02:03:03.960Z,4.28
2019-05-05T02:03:37.268Z,4.00
2019-05-05T02:04:10.703Z,4.25
2019-05-05T02:04:44.749Z,4.62
2019-05-05T02:05:18.332Z,4.10
2019-05-05T02:05:51.751Z,3.85
2019-05-05T02:06:25.157Z,4.05
2019-05-05T02:06:58.568Z,4.00
2019-05-05T02:07:34.136Z,4.20
2019-05-05T02:08:07.041Z,3.95
2019-05-05T02:08:40.455Z,3.98
2019-05-05T02:09:15.897Z,4.08
2019-05-05T02:09:49.083Z,4.20
2019-05-05T02:10:22.512Z,4.33
2019-05-05T02:10:55.923Z,3.80
2019-05-05T02:11:29.332Z,3.60
2019-05-05T02:12:04.987Z,3.72
2019-05-05T02:12:37.807Z,3.80
2019-05-05T02:13:11.221Z,3.95
2019-05-05T02:13:45.055Z,4.33
2019-05-05T02:14:18.544Z,4.35
2019-05-05T02:14:51.952Z,3.92
2019-05-05T02:15:25.385Z,4.20
2019-05-05T02:15:58.824Z,4.03
2019-05-05T02:16:32.236Z,3.90
2019-05-05T02:17:05.654Z,3.77
2019-05-05T02:17:39.062Z,3.72
2019-05-05T02:18:12.476Z,3.70
2019-05-05T02:18:45.888Z,3.60
2019-05-05T02:19:19.297Z,3.77
2019-05-05T02:19:54.754Z,3.40
2019-05-05T02:21:00.839Z,3.22
2019-05-05T02:21:35.280Z,3.27
2019-05-05T02:22:08.883Z,3.50
2019-05-05T02:22:42.302Z,3.33
2019-05-05T02:23:17.381Z,2.83
2019-05-05T02:23:50.795Z,3.70
2019-05-05T02:24:25.148Z,3.35
2019-05-05T02:24:58.816Z,3.22
2019-05-05T02:25:34.425Z,3.90
2019-05-05T02:26:07.496Z,3.95
2019-05-05T02:26:40.920Z,3.72
2019-05-05T02:27:14.928Z,3.33
2019-05-05T02:27:48.336Z,3.75
2019-05-05T02:28:21.822Z,3.58
2019-05-05T02:28:59.569Z,3.83
2019-05-05T02:29:35.363Z,3.12
2019-05-05T02:30:16.179Z,3.00
2019-05-05T02:31:06.320Z,3.02
2019-05-05T02:31:41.378Z,2.87
2019-05-05T02:32:25.319Z,2.92
2019-05-05T02:33:01.895Z,3.35
2019-05-05T02:33:35.530Z,3.02
2019-05-05T02:34:10.875Z,3.20
2019-05-05T02:34:45.938Z,3.05
2019-05-05T02:35:19.347Z,2.80
2019-05-05T02:35:55.414Z,2.60
2019-05-05T02:36:27.815Z,3.33
2019-05-05T02:37:01.226Z,2.83
2019-05-05T02:37:35.724Z,3.05
2019-05-05T02:38:09.579Z,2.85
2019-05-05T02:38:45.915Z,2.98
2019-05-05T02:39:18.052Z,2.77
2019-05-05T02:39:58.906Z,2.83
2019-05-05T02:40:26.578Z,3.15
2019-05-05T02:40:59.981Z,2.52
2019-05-05T02:41:34.816Z,2.62
2019-05-05T02:42:08.297Z,3.20
2019-05-05T02:42:41.714Z,3.00
2019-05-05T02:43:16.682Z,2.77
2019-05-05T02:43:50.117Z,2.87
2019-05-05T02:44:25.461Z,2.47
2019-05-05T02:45:00.289Z,2.47
2019-05-05T02:45:50.755Z,2.65
2019-05-05T02:46:40.501Z,2.47
2019-05-05T02:47:18.418Z,2.20
2019-05-05T02:48:05.567Z,2.55
2019-05-05T02:48:37.408Z,2.22
2019-05-05T02:49:10.841Z,2.70
2019-05-05T02:49:45.371Z,2.30
2019-05-05T02:50:19.172Z,2.37
2019-05-05T02:51:01.772Z,2.90
2019-05-05T02:51:32.026Z,2.30
2019-05-05T02:52:05.431Z,2.40
2019-05-05T02:52:38.847Z,2.30
2019-05-05T02:53:14.223Z,2.50
2019-05-05T02:53:50.133Z,2.40
2019-05-05T02:54:24.825Z,2.50
2019-05-05T02:54:58.414Z,2.30
2019-05-05T02:55:32.775Z,2.55
2019-05-05T02:56:08.521Z,2.98
2019-05-05T02:56:46.522Z,2.80
2019-05-05T02:57:20.002Z,2.95
2019-05-05T02:57:54.398Z,3.00
2019-05-05T02:58:28.069Z,3.30
2019-05-05T02:59:04.337Z,2.75
2019-05-05T02:59:39.650Z,2.60
2019-05-05T03:00:14.701Z,2.65
2019-05-05T03:00:55.565Z,2.20
2019-05-05T03:02:18.476Z,2.17
2019-05-05T03:02:53.461Z,2.02
2019-05-05T03:03:27.129Z,2.17
2019-05-05T03:04:00.601Z,2.15
2019-05-05T03:04:34.029Z,1.92
2019-05-05T03:05:07.460Z,2.30
2019-05-05T03:05:40.874Z,2.20
2019-05-05T03:06:14.522Z,2.35
2019-05-05T03:06:48.823Z,2.12
2019-05-05T03:07:22.245Z,2.15
2019-05-05T03:07:55.657Z,2.27
2019-05-05T03:08:29.064Z,2.47
2019-05-05T03:09:04.349Z,1.85
2019-05-05T03:09:37.534Z,2.47
2019-05-05T03:10:10.957Z,2.02
2019-05-05T03:10:44.402Z,2.40
2019-05-05T03:11:17.800Z,1.98
2019-05-05T03:11:51.212Z,1.80
2019-05-05T03:12:24.624Z,2.00
2019-05-05T03:12:58.038Z,1.92
2019-05-05T03:13:33.584Z,1.67
2019-05-05T03:14:06.855Z,1.80
2019-05-05T03:14:40.266Z,1.95
2019-05-05T03:15:33.685Z,1.47
2019-05-05T03:16:23.729Z,1.80
2019-05-05T03:16:57.292Z,1.87
2019-05-05T03:17:30.703Z,1.80
2019-05-05T03:18:04.247Z,1.90
2019-05-05T03:18:37.797Z,2.02
2019-05-05T03:19:11.214Z,1.70
2019-05-05T03:19:44.698Z,1.98
2019-05-05T03:20:18.110Z,1.90
2019-05-05T03:21:03.184Z,1.82
2019-05-05T03:21:26.983Z,2.00
2019-05-05T03:22:00.403Z,2.10
2019-05-05T03:22:34.148Z,2.05
2019-05-05T03:23:07.728Z,1.77
2019-05-05T03:23:41.202Z,2.20
2019-05-05T03:24:14.607Z,1.70
2019-05-05T03:24:48.022Z,2.12
2019-05-05T03:25:21.426Z,1.67
2019-05-05T03:25:54.845Z,1.70
2019-05-05T03:26:28.267Z,1.80
2019-05-05T03:27:03.698Z,1.62
2019-05-05T03:27:36.747Z,1.90
2019-05-05T03:28:10.157Z,1.50
2019-05-05T03:28:49.311Z,1.57
2019-05-05T03:29:24.405Z,1.40
2019-05-05T03:29:57.845Z,1.82
2019-05-05T03:30:31.252Z,1.60
2019-05-05T03:31:05.121Z,1.75
2019-05-05T03:31:38.901Z,1.77
2019-05-05T03:32:15.948Z,1.52
2019-05-05T03:32:47.396Z,1.87
2019-05-05T03:33:20.801Z,1.72
2019-05-05T03:33:55.080Z,1.82
2019-05-05T03:34:28.752Z,1.77
2019-05-05T03:35:04.162Z,2.20
2019-05-05T03:35:37.225Z,1.77
2019-05-05T03:36:10.636Z,2.10
2019-05-05T03:36:44.220Z,1.87
2019-05-05T03:37:17.776Z,1.80
2019-05-05T03:37:51.210Z,1.82
2019-05-05T03:38:24.871Z,2.00
2019-05-05T03:38:58.336Z,1.90
2019-05-05T03:39:34.060Z,1.80
2019-05-05T03:40:09.266Z,1.80
2019-05-05T03:40:44.311Z,2.10
2019-05-05T03:41:23.875Z,2.00
2019-05-05T03:42:03.629Z,1.77
2019-05-05T03:42:38.878Z,1.90
2019-05-05T03:43:23.676Z,1.80
2019-05-05T03:44:07.463Z,1.70
2019-05-05T03:44:44.933Z,1.85
2019-05-05T03:45:19.984Z,2.00
2019-05-05T03:45:55.041Z,1.85
2019-05-05T03:46:28.522Z,1.80
2019-05-05T03:47:03.565Z,1.80
2019-05-05T03:47:36.996Z,2.25
2019-05-05T03:48:10.430Z,1.90
2019-05-05T03:48:43.894Z,1.80
2019-05-05T03:49:17.266Z,1.80
2019-05-05T03:49:50.750Z,1.60
2019-05-05T03:50:24.158Z,1.70
2019-05-05T03:50:57.571Z,1.70
2019-05-05T03:51:30.989Z,1.80
2019-05-05T03:52:04.939Z,1.92
2019-05-05T03:52:38.364Z,1.62
2019-05-05T03:53:13.874Z,1.70
2019-05-05T03:53:46.854Z,1.62
2019-05-05T03:54:20.286Z,1.75
2019-05-05T03:54:54.174Z,1.82
2019-05-05T03:55:27.978Z,1.67
2019-05-05T03:56:01.387Z,1.35
2019-05-05T03:56:34.916Z,1.72
2019-05-05T03:57:08.320Z,1.62
2019-05-05T03:57:41.718Z,1.70
2019-05-05T03:58:15.131Z,1.62
2019-05-05T03:58:48.529Z,1.60
2019-05-05T03:59:24.265Z,1.92
2019-05-05T03:59:57.210Z,1.65
2019-05-05T04:00:45.712Z,1.50
2019-05-05T04:01:44.034Z,1.60
2019-05-05T04:02:23.438Z,1.40
2019-05-05T04:02:58.564Z,1.67
2019-05-05T04:03:34.033Z,1.60
2019-05-05T04:04:26.517Z,1.62
2019-05-05T04:05:01.588Z,1.45
2019-05-05T04:05:39.579Z,1.65
2019-05-05T04:06:14.664Z,1.70
2019-05-05T04:06:49.642Z,1.82
2019-05-05T04:07:24.209Z,1.80
2019-05-05T04:07:57.858Z,1.17
2019-05-05T04:08:31.267Z,1.50
2019-05-05T04:09:06.018Z,1.85
2019-05-05T04:09:39.428Z,1.60
2019-05-05T04:10:14.049Z,1.70
2019-05-05T04:10:47.803Z,1.75
2019-05-05T04:11:21.210Z,1.75
2019-05-05T04:11:54.690Z,1.32
2019-05-05T04:12:28.100Z,1.72
2019-05-05T04:13:04.490Z,1.60
2019-05-05T04:13:37.313Z,1.30
2019-05-05T04:14:10.791Z,1.70
2019-05-05T04:14:45.075Z,1.35
2019-05-05T04:15:18.552Z,1.57
2019-05-05T04:16:10.484Z,1.45
2019-05-05T04:16:45.626Z,1.57
2019-05-05T04:17:33.649Z,1.45
2019-05-05T04:18:08.990Z,1.40
2019-05-05T04:18:44.053Z,1.47
2019-05-05T04:19:23.706Z,1.45
2019-05-05T04:20:15.107Z,1.40
2019-05-05T04:21:31.364Z,1.07
2019-05-05T04:21:56.483Z,1.27
2019-05-05T04:22:31.539Z,1.15
2019-05-05T04:23:04.952Z,1.20
2019-05-05T04:23:38.366Z,1.70
2019-05-05T04:24:11.764Z,1.10
2019-05-05T04:24:45.175Z,0.98
2019-05-05T04:25:18.587Z,1.07
2019-05-05T04:25:52.008Z,1.30
2019-05-05T04:26:25.407Z,1.20
2019-05-05T04:26:58.841Z,1.20
2019-05-05T04:27:34.179Z,1.42
2019-05-05T04:28:07.324Z,1.12
2019-05-05T04:28:40.734Z,1.67
2019-05-05T04:29:14.150Z,1.17
2019-05-05T04:29:47.560Z,1.10
2019-05-05T04:30:20.975Z,1.10
2019-05-05T04:30:54.406Z,0.98
2019-05-05T04:31:27.814Z,1.17
2019-05-05T04:32:01.219Z,1.30
2019-05-05T04:32:34.917Z,1.20
2019-05-05T04:33:08.380Z,1.32
2019-05-05T04:33:41.859Z,1.27
2019-05-05T04:34:15.272Z,1.12
2019-05-05T04:34:48.685Z,1.15
2019-05-05T04:35:22.097Z,1.20
2019-05-05T04:35:55.504Z,0.98
2019-05-05T04:36:28.909Z,1.67
2019-05-05T04:37:04.174Z,1.40
2019-05-05T04:37:37.379Z,1.32
2019-05-05T04:38:10.809Z,1.22
2019-05-05T04:38:44.245Z,1.20
2019-05-05T04:39:17.656Z,1.40
2019-05-05T04:39:51.073Z,1.17
2019-05-05T04:40:24.480Z,1.22
2019-05-05T04:40:57.897Z,1.17
2019-05-05T04:41:31.316Z,1.20
2019-05-05T04:42:04.940Z,1.37
2019-05-05T04:42:38.429Z,1.02
2019-05-05T04:43:14.110Z,1.35
2019-05-05T04:43:46.921Z,1.37
2019-05-05T04:44:20.347Z,1.20
2019-05-05T04:44:53.944Z,1.20
2019-05-05T04:45:27.490Z,1.35
2019-05-05T04:46:00.903Z,1.10
2019-05-05T04:46:34.315Z,1.40
2019-05-05T04:47:09.362Z,1.20
2019-05-05T04:47:47.125Z,1.47
2019-05-05T04:48:31.325Z,1.40
2019-05-05T04:49:06.398Z,1.17
2019-05-05T04:49:44.633Z,1.20
2019-05-05T04:50:19.738Z,1.22
2019-05-05T04:50:54.783Z,1.32
2019-05-05T04:51:29.837Z,1.20
2019-05-05T04:52:07.621Z,1.35
2019-05-05T04:52:41.041Z,1.60
2019-05-05T04:53:24.959Z,1.40
2019-05-05T04:54:09.155Z,1.00
2019-05-05T04:54:49.983Z,1.55
2019-05-05T04:55:24.479Z,1.60
2019-05-05T04:55:58.229Z,1.32
2019-05-05T04:56:34.107Z,1.80
2019-05-05T04:57:06.775Z,1.50
2019-05-05T04:57:40.186Z,1.70
2019-05-05T04:58:13.783Z,1.70
2019-05-05T04:58:47.511Z,1.75
2019-05-05T04:59:20.925Z,1.80
2019-05-05T04:59:54.347Z,1.60
2019-05-05T05:00:27.755Z,1.60
2019-05-05T05:01:01.190Z,1.77
2019-05-05T05:01:34.874Z,1.72
2019-05-05T05:02:09.923Z,1.60
2019-05-05T05:03:04.492Z,1.60
2019-05-05T05:03:54.195Z,1.70
2019-05-05T05:04:28.645Z,1.40
2019-05-05T05:05:09.719Z,1.47
2019-05-05T05:05:59.535Z,1.47
2019-05-05T05:06:37.521Z,1.25
2019-05-05T05:07:10.998Z,1.25
2019-05-05T05:07:44.413Z,1.25
2019-05-05T05:08:17.822Z,1.57
2019-05-05T05:08:51.231Z,1.35
2019-05-05T05:09:24.639Z,1.50
2019-05-05T05:09:58.058Z,1.20
2019-05-05T05:10:31.471Z,1.30
2019-05-05T05:11:04.873Z,1.20
2019-05-05T05:11:38.312Z,1.57
2019-05-05T05:12:11.751Z,1.30
2019-05-05T05:12:45.171Z,1.20
2019-05-05T05:13:18.574Z,1.20
2019-05-05T05:13:51.991Z,1.50
2019-05-05T05:14:25.405Z,1.30
2019-05-05T05:14:58.885Z,1.10
2019-05-05T05:15:34.061Z,1.07
2019-05-05T05:16:07.353Z,1.10
2019-05-05T05:16:40.759Z,1.20
2019-05-05T05:17:15.827Z,1.30
2019-05-05T05:17:53.406Z,1.17
2019-05-05T05:18:26.473Z,0.90
2019-05-05T05:18:59.886Z,1.32
2019-05-05T05:19:33.577Z,0.93
2019-05-05T05:20:08.172Z,1.17
2019-05-05T05:20:41.581Z,1.15
2019-05-05T05:21:15.008Z,1.00
2019-05-05T05:22:00.827Z,1.20
2019-05-05T05:22:24.344Z,1.20
2019-05-05T05:22:58.103Z,1.30
2019-05-05T05:23:33.892Z,1.02
2019-05-05T05:24:06.599Z,1.22
2019-05-05T05:24:40.004Z,1.30
2019-05-05T05:25:14.388Z,1.10
2019-05-05T05:25:47.792Z,1.05
2019-05-05T05:26:21.217Z,1.10
2019-05-05T05:26:55.552Z,1.20
2019-05-05T05:27:29.736Z,1.02
2019-05-05T05:28:04.165Z,1.17
2019-05-05T05:28:39.713Z,1.10
2019-05-05T05:29:15.054Z,1.22
2019-05-05T05:29:48.375Z,0.93
2019-05-05T05:30:24.013Z,0.90
2019-05-05T05:30:57.556Z,0.90
2019-05-05T05:31:30.948Z,0.93
2019-05-05T05:32:04.397Z,1.00
2019-05-05T05:32:39.819Z,1.10
2019-05-05T05:33:14.753Z,1.00
2019-05-05T05:33:47.976Z,0.90
2019-05-05T05:34:27.616Z,1.27
2019-05-05T05:35:03.543Z,0.98
2019-05-05T05:35:36.327Z,0.98
2019-05-05T05:36:10.529Z,0.82
2019-05-05T05:36:44.628Z,0.90
2019-05-05T05:37:18.074Z,0.98
2019-05-05T05:37:53.835Z,0.85
2019-05-05T05:38:31.830Z,0.80
2019-05-05T05:39:09.221Z,0.80
2019-05-05T05:39:49.940Z,1.10
2019-05-05T05:40:25.000Z,1.00
2019-05-05T05:41:13.643Z,0.90
2019-05-05T05:41:48.303Z,0.85
2019-05-05T05:42:21.718Z,0.90
2019-05-05T05:42:55.601Z,0.80
2019-05-05T05:43:30.654Z,0.90
2019-05-05T05:44:05.708Z,0.90
2019-05-05T05:44:40.784Z,1.00
2019-05-05T05:45:28.118Z,0.98
2019-05-05T05:46:05.599Z,1.00
2019-05-05T05:46:55.613Z,1.10
2019-05-05T05:47:37.141Z,1.10
2019-05-05T05:48:18.187Z,0.70
2019-05-05T05:49:08.266Z,0.80
2019-05-05T05:49:58.898Z,0.80
2019-05-05T05:50:34.310Z,1.10
2019-05-05T05:51:14.493Z,0.78
2019-05-05T05:51:47.327Z,0.78
2019-05-05T05:52:20.751Z,0.80
2019-05-05T05:52:54.181Z,0.60
2019-05-05T05:53:27.577Z,0.70
2019-05-05T05:54:00.989Z,0.80
2019-05-05T05:54:34.404Z,0.70
2019-05-05T05:55:07.809Z,0.72
2019-05-05T05:55:41.243Z,0.80
2019-05-05T05:56:14.680Z,0.80
2019-05-05T05:56:49.388Z,0.70
2019-05-05T05:57:24.081Z,0.65
2019-05-05T05:57:57.857Z,0.80
2019-05-05T05:58:31.232Z,0.70
2019-05-05T05:59:04.645Z,0.70
2019-05-05T05:59:38.065Z,0.90
2019-05-05T06:00:11.472Z,0.70
2019-05-05T06:00:44.881Z,0.75
2019-05-05T06:01:18.315Z,0.47
2019-05-05T06:02:08.056Z,0.75
2019-05-05T06:02:26.805Z,0.60
2019-05-05T06:03:00.227Z,0.72
2019-05-05T06:03:34.010Z,0.60
2019-05-05T06:04:07.753Z,0.60
2019-05-05T06:04:41.512Z,0.65
2019-05-05T06:05:14.912Z,0.70
2019-05-05T06:05:48.311Z,0.40
2019-05-05T06:06:23.995Z,0.60
2019-05-05T06:06:56.815Z,0.60
2019-05-05T06:07:30.243Z,0.72
2019-05-05T06:08:04.693Z,0.55
2019-05-05T06:08:38.369Z,0.70
2019-05-05T06:09:11.772Z,0.93
2019-05-05T06:09:45.188Z,1.20
2019-05-05T06:10:23.908Z,0.90
2019-05-05T06:10:54.728Z,0.60
2019-05-05T06:11:28.273Z,0.93
2019-05-05T06:12:03.457Z,1.00
2019-05-05T06:12:36.779Z,0.82
2019-05-05T06:13:10.213Z,0.82
2019-05-05T06:13:44.449Z,0.90
2019-05-05T06:14:18.676Z,0.90
2019-05-05T06:14:53.727Z,0.72
2019-05-05T06:15:27.297Z,0.60
2019-05-05T06:16:00.785Z,1.05
2019-05-05T06:16:34.327Z,0.70
2019-05-05T06:17:07.999Z,0.72
2019-05-05T06:17:43.371Z,0.80
2019-05-05T06:18:16.498Z,0.98
2019-05-05T06:18:49.924Z,0.80
2019-05-05T06:19:24.591Z,0.90
2019-05-05T06:19:58.255Z,0.90
2019-05-05T06:20:31.669Z,0.70
2019-05-05T06:21:05.071Z,1.10
2019-05-05T06:21:38.473Z,0.70
2019-05-05T06:22:13.914Z,0.60
2019-05-05T06:22:46.937Z,0.70
2019-05-05T06:23:20.350Z,0.90
2019-05-05T06:23:53.886Z,0.70
2019-05-05T06:24:27.317Z,0.62
2019-05-05T06:25:00.732Z,0.95
2019-05-05T06:25:34.426Z,0.70
2019-05-05T06:26:08.057Z,0.75
2019-05-05T06:26:41.458Z,0.60
2019-05-05T06:27:14.863Z,0.70
2019-05-05T06:27:48.281Z,0.68
2019-05-05T06:28:23.541Z,0.78
2019-05-05T06:28:56.749Z,0.78
2019-05-05T06:29:30.179Z,0.60
2019-05-05T06:30:04.519Z,0.93
2019-05-05T06:30:38.102Z,0.80
2019-05-05T06:31:11.513Z,0.70
2019-05-05T06:31:44.936Z,0.90
2019-05-05T06:32:18.331Z,0.82
2019-05-05T06:32:54.192Z,0.80
2019-05-05T06:33:26.880Z,0.75
2019-05-05T06:34:00.312Z,1.10
2019-05-05T06:34:33.967Z,0.60
2019-05-05T06:35:10.322Z,0.85
2019-05-05T06:35:44.273Z,0.90
2019-05-05T06:36:18.177Z,0.50
2019-05-05T06:36:53.639Z,0.70
2019-05-05T06:37:26.622Z,0.85
2019-05-05T06:38:00.031Z,0.68
2019-05-05T06:38:34.636Z,0.60
2019-05-05T06:39:08.423Z,0.70
2019-05-05T06:39:43.833Z,1.10
2019-05-05T06:40:18.537Z,0.60
2019-05-05T06:40:56.388Z,0.95
2019-05-05T06:41:43.717Z,0.60
2019-05-05T06:42:34.358Z,0.90
2019-05-05T06:43:18.886Z,0.80
2019-05-05T06:44:05.900Z,0.80
2019-05-05T06:44:40.940Z,0.60
2019-05-05T06:45:23.809Z,0.93
2019-05-05T06:46:01.697Z,0.70
2019-05-05T06:46:53.718Z,0.70
2019-05-05T06:47:28.209Z,0.70
2019-05-05T06:48:01.624Z,0.70
2019-05-05T06:48:35.031Z,0.70
2019-05-05T06:49:08.438Z,0.50
2019-05-05T06:49:43.620Z,0.80
2019-05-05T06:50:16.912Z,0.70
2019-05-05T06:50:50.490Z,0.70
2019-05-05T06:51:24.505Z,0.72
2019-05-05T06:51:58.211Z,0.80
2019-05-05T06:52:41.903Z,0.60
2019-05-05T06:53:06.742Z,0.80
2019-05-05T06:53:40.146Z,1.05
2019-05-05T06:54:13.768Z,0.80
2019-05-05T06:54:47.471Z,1.10
2019-05-05T06:55:20.925Z,1.22
2019-05-05T06:55:54.380Z,1.55
2019-05-05T06:56:27.739Z,1.72
2019-05-05T06:57:01.154Z,2.02
2019-05-05T06:57:34.563Z,1.92
2019-05-05T06:58:08.004Z,2.27
2019-05-05T06:58:41.429Z,1.50
2019-05-05T06:59:14.845Z,1.30
2019-05-05T06:59:48.265Z,1.40
2019-05-05T07:00:21.679Z,1.00
2019-05-05T07:00:55.104Z,1.30
2019-05-05T07:01:28.505Z,1.02
2019-05-05T07:02:04.035Z,1.05
2019-05-05T07:02:37.032Z,1.07
2019-05-05T07:03:10.451Z,0.95
2019-05-05T07:03:44.026Z,1.30
2019-05-05T07:04:17.482Z,1.25
2019-05-05T07:04:50.895Z,1.00
2019-05-05T07:05:24.353Z,0.70
2019-05-05T07:05:57.762Z,0.90
2019-05-05T07:06:31.172Z,0.82
2019-05-05T07:07:05.218Z,0.70
2019-05-05T07:07:38.895Z,1.30
2019-05-05T07:08:13.788Z,0.93
2019-05-05T07:08:47.428Z,1.20
2019-05-05T07:09:20.851Z,1.20
2019-05-05T07:09:54.406Z,1.10
2019-05-05T07:10:27.792Z,0.78
2019-05-05T07:11:01.257Z,1.10
2019-05-05T07:11:34.643Z,0.90
2019-05-05T07:12:08.125Z,0.90
2019-05-05T07:12:43.819Z,0.90
2019-05-05T07:13:16.623Z,1.10
2019-05-05T07:13:50.034Z,0.95
2019-05-05T07:14:23.700Z,1.05
2019-05-05T07:14:57.346Z,1.00
2019-05-05T07:15:30.772Z,1.15
2019-05-05T07:16:04.945Z,1.05
2019-05-05T07:16:38.458Z,1.05
2019-05-05T07:17:13.909Z,1.12
2019-05-05T07:17:46.979Z,1.70
2019-05-05T07:18:20.383Z,1.45
2019-05-05T07:18:54.054Z,1.40
2019-05-05T07:19:27.622Z,1.20
2019-05-05T07:20:01.033Z,1.07
2019-05-05T07:20:34.730Z,1.00
2019-05-05T07:21:08.413Z,0.85
2019-05-05T07:21:43.633Z,1.10
2019-05-05T07:22:17.742Z,0.85
2019-05-05T07:23:00.576Z,0.85
2019-05-05T07:23:26.696Z,0.80
2019-05-05T07:24:00.097Z,0.93
2019-05-05T07:24:34.423Z,1.20
2019-05-05T07:25:08.318Z,0.88
2019-05-05T07:25:45.304Z,0.90
2019-05-05T07:26:16.869Z,0.70
2019-05-05T07:26:50.302Z,0.75
2019-05-05T07:27:24.300Z,1.07
2019-05-05T07:27:57.896Z,0.85
2019-05-05T07:28:31.300Z,0.80
2019-05-05T07:29:04.778Z,1.15
2019-05-05T07:29:38.192Z,1.07
2019-05-05T07:30:13.605Z,0.80
2019-05-05T07:30:46.751Z,0.88
2019-05-05T07:31:20.176Z,0.80
2019-05-05T07:31:54.566Z,0.85
2019-05-05T07:32:28.202Z,1.10
2019-05-05T07:33:01.644Z,0.80
2019-05-05T07:33:35.055Z,0.70
2019-05-05T07:34:08.535Z,0.70
2019-05-05T07:34:49.662Z,1.00
2019-05-05T07:35:24.766Z,1.10
2019-05-05T07:36:16.258Z,1.35
2019-05-05T07:36:49.939Z,0.90
2019-05-05T07:37:23.903Z,0.85
2019-05-05T07:37:57.608Z,0.80
2019-05-05T07:38:31.016Z,0.95
2019-05-05T07:39:06.572Z,1.10
2019-05-05T07:39:39.985Z,1.20
2019-05-05T07:40:13.533Z,1.25
2019-05-05T07:40:47.107Z,1.05
2019-05-05T07:41:20.592Z,1.07
2019-05-05T07:41:54.338Z,1.10
2019-05-05T07:42:28.149Z,0.98
2019-05-05T07:43:01.573Z,0.98
2019-05-05T07:43:35.009Z,1.30
2019-05-05T07:44:16.604Z,1.07
2019-05-05T07:44:44.086Z,1.15
2019-05-05T07:45:22.579Z,1.00
2019-05-05T07:45:54.026Z,0.78
2019-05-05T07:46:27.799Z,1.00
2019-05-05T07:47:01.207Z,0.70
2019-05-05T07:47:34.623Z,1.10
2019-05-05T07:48:08.030Z,1.17
2019-05-05T07:48:41.455Z,1.00